Alix, Canada
Current Conditions -  °F | °C
As of 8:00 AM on Saturday 22 Nov 2014 (Local Time) from CYQF Reporting Station
Overcast Overcast  
Wind Chill: 22°   Ceiling: 6500
Heat Index: 28°   Visibility: 15mi
Dew Point: 27°   Wind: 6mph
Humidity: 93%   Direction: 320°NW
Pressure: 29.05"   Gusts: NA
Location:  52.4°N, 113.18°W
Report Text: CYQF 221500Z 32005KT 170V340 15SM OVC065 M02/M03 A2905 RMK SC8 SLP871
Loading
Personal Weather Stations






























Interactive Weather Map New forecast layout! Learn more

10-Day Weather Forecast

Advertisements
Track Severe Weather on mobile